首页
METAR-TAF:

METAR-TAF

机场 :

Roi Et, 泰国

纬度: 16-07-00N, 经度: 103-46-26E, 海拔: 138米

当前天气观测

该预报发布于33分钟前的11:00 UTC
风速4节,风向东北
温度 26°C
湿度 54%
气压 1014 hPa
能見度: 8000
散云层高于3500英尺

METAR: VTUV 181100Z 04004KT 8000 SCT035 26/16 Q1014 NOSIG INFO L RWY 36

时间: 18:33 (11:33 UTC)

预报

该预报发布于6小时和33分钟前的05:00 UTC
预报有效从18日的 06点(UTC)到 19日的 06点(UTC)
风速8节,风向东转东北
能見度: 9000
少量云层高于3000英尺
成为
从 18日的 20点(UTC)到 18日的 22点(UTC)
能見度: 7000
成为
从 19日的 00点(UTC)到 19日的 02点(UTC)
能见度10公里或以上

TAF: VTUV 180500Z 1806/1906 06008KT 9000 FEW030 BECMG 1820/1822 7000 NSC BECMG 1900/1902 9999 NSW

超过4000个机场的气象观测和天气预报(METAR&TAF报告)。

可查询的气象台以黄色和红色小点在地图上表示。

将鼠标移到小点上方,可查看气象台名称。

然后点击查看天气观测和预报。

如需切换地图:点击带黑十字的绿色按钮放大地图;点击带横线的绿色按钮缩小地图;或者点击绿色箭头查看邻近地区的地图。


METAR-TAF: